createdAt,value
2022-12-31T00:00:25.379Z,984.68
2022-12-31T00:01:25.219Z,984.68
2022-12-31T00:02:25.245Z,984.79
2022-12-31T00:03:25.171Z,984.69
2022-12-31T00:04:24.989Z,984.66
2022-12-31T00:05:24.899Z,984.78
2022-12-31T00:06:24.814Z,984.91
2022-12-31T00:07:24.736Z,984.78
2022-12-31T00:08:24.659Z,984.94
2022-12-31T00:09:24.630Z,984.96
2022-12-31T00:10:24.499Z,984.96
2022-12-31T00:11:24.437Z,984.98
2022-12-31T00:12:24.339Z,984.90
2022-12-31T00:13:24.268Z,984.78
2022-12-31T00:14:24.190Z,984.73
2022-12-31T00:15:24.100Z,984.88
2022-12-31T00:16:24.058Z,984.91
2022-12-31T00:17:24.043Z,984.88
2022-12-31T00:18:23.862Z,984.98
2022-12-31T00:19:23.780Z,985.02
2022-12-31T00:20:23.741Z,984.99
2022-12-31T00:21:23.623Z,985.01
2022-12-31T00:22:23.544Z,985.04
2022-12-31T00:23:23.621Z,984.84
2022-12-31T00:24:23.394Z,984.94
2022-12-31T00:25:23.329Z,984.95
2022-12-31T00:26:23.282Z,984.84
2022-12-31T00:27:23.146Z,984.87
2022-12-31T00:28:23.069Z,985.02
2022-12-31T00:29:22.987Z,985.03
2022-12-31T00:30:22.909Z,984.96
2022-12-31T00:31:22.886Z,985.00
2022-12-31T00:32:22.751Z,985.04
2022-12-31T00:33:22.669Z,985.05
2022-12-31T00:34:22.592Z,985.00
2022-12-31T00:35:22.509Z,985.02
2022-12-31T00:36:22.439Z,985.04
2022-12-31T00:37:22.351Z,985.00
2022-12-31T00:38:22.274Z,985.00
2022-12-31T00:39:22.194Z,985.12
2022-12-31T00:40:22.135Z,985.02
2022-12-31T00:41:22.121Z,985.09
2022-12-31T00:42:21.955Z,984.97
2022-12-31T00:43:21.872Z,985.07
2022-12-31T00:44:21.826Z,985.06
2022-12-31T00:45:21.715Z,985.06
2022-12-31T00:46:21.695Z,985.01
2022-12-31T00:47:21.555Z,984.99
2022-12-31T00:48:21.478Z,985.07
2022-12-31T00:49:21.396Z,985.06
2022-12-31T00:50:21.324Z,985.04
2022-12-31T00:51:21.244Z,985.01
2022-12-31T00:52:21.160Z,984.99
2022-12-31T00:53:21.082Z,985.03
2022-12-31T00:54:21.002Z,985.02
2022-12-31T00:55:20.932Z,985.18
2022-12-31T00:56:20.844Z,985.14
2022-12-31T00:57:20.805Z,985.17
2022-12-31T00:58:20.685Z,985.13
2022-12-31T00:59:20.804Z,985.06
2022-12-31T01:00:20.524Z,985.06
2022-12-31T01:01:20.629Z,985.06
2022-12-31T01:02:20.576Z,985.08
2022-12-31T01:03:20.345Z,985.14
2022-12-31T01:04:20.213Z,985.09
2022-12-31T01:05:20.128Z,985.21
2022-12-31T01:06:20.052Z,985.16
2022-12-31T01:07:19.968Z,985.22
2022-12-31T01:08:19.893Z,985.23
2022-12-31T01:09:19.813Z,985.14
2022-12-31T01:10:19.736Z,985.16
2022-12-31T01:11:19.667Z,985.19
2022-12-31T01:12:19.572Z,985.23
2022-12-31T01:13:19.609Z,985.27
2022-12-31T01:14:19.446Z,985.22
2022-12-31T01:15:19.335Z,985.23
2022-12-31T01:16:19.254Z,985.19
2022-12-31T01:17:19.173Z,985.28
2022-12-31T01:18:19.104Z,985.25
2022-12-31T01:19:19.016Z,985.27
2022-12-31T01:20:18.942Z,985.31
2022-12-31T01:21:18.988Z,985.35
2022-12-31T01:22:18.777Z,985.39
2022-12-31T01:23:18.700Z,985.34
2022-12-31T01:24:18.634Z,985.46
2022-12-31T01:25:18.538Z,985.42
2022-12-31T01:26:18.471Z,985.51
2022-12-31T01:27:18.402Z,985.39
2022-12-31T01:28:18.554Z,985.52
2022-12-31T01:29:18.259Z,985.30
2022-12-31T01:30:18.143Z,985.45
2022-12-31T01:31:18.168Z,985.43
2022-12-31T01:32:17.990Z,985.43
2022-12-31T01:33:17.909Z,985.47
2022-12-31T01:34:17.825Z,985.45
2022-12-31T01:35:17.746Z,985.50
2022-12-31T01:36:21.899Z,985.52
2022-12-31T01:37:17.591Z,985.51
2022-12-31T01:38:17.525Z,985.52
2022-12-31T01:39:17.430Z,985.74
2022-12-31T01:40:17.505Z,985.77
2022-12-31T01:41:17.273Z,985.76
2022-12-31T01:42:17.189Z,985.53
2022-12-31T01:43:17.117Z,985.57
2022-12-31T01:44:17.032Z,985.61
2022-12-31T01:45:16.969Z,985.60
2022-12-31T01:46:16.983Z,985.57
2022-12-31T01:47:16.791Z,985.70
2022-12-31T01:48:16.764Z,985.71
2022-12-31T01:49:16.854Z,985.64
2022-12-31T01:50:16.573Z,985.68
2022-12-31T01:51:16.473Z,985.56
2022-12-31T01:52:16.396Z,985.66
2022-12-31T01:53:16.330Z,985.63
2022-12-31T01:54:16.234Z,985.67
2022-12-31T01:55:16.169Z,985.76
2022-12-31T01:56:16.080Z,985.77
2022-12-31T01:57:16.011Z,985.81
2022-12-31T01:58:15.925Z,985.71
2022-12-31T01:59:15.853Z,985.88
2022-12-31T02:00:15.765Z,985.92
2022-12-31T02:01:15.884Z,985.95
2022-12-31T02:02:15.672Z,985.83
2022-12-31T02:03:15.562Z,985.81
2022-12-31T02:04:15.442Z,985.82
2022-12-31T02:05:15.365Z,985.77
2022-12-31T02:06:15.284Z,985.80
2022-12-31T02:07:15.205Z,985.73
2022-12-31T02:08:15.131Z,985.82
2022-12-31T02:09:15.050Z,985.74
2022-12-31T02:10:14.975Z,985.84
2022-12-31T02:11:14.886Z,985.65
2022-12-31T02:12:14.809Z,985.81
2022-12-31T02:13:14.728Z,985.75
2022-12-31T02:14:14.654Z,985.87
2022-12-31T02:15:14.580Z,985.89
2022-12-31T02:16:14.560Z,985.75
2022-12-31T02:17:14.432Z,985.77
2022-12-31T02:18:14.334Z,985.78
2022-12-31T02:19:14.251Z,985.73
2022-12-31T02:20:14.176Z,985.76
2022-12-31T02:21:14.092Z,985.80
2022-12-31T02:22:14.013Z,985.92
2022-12-31T02:23:13.946Z,985.85
2022-12-31T02:24:13.856Z,985.77
2022-12-31T02:25:13.775Z,985.83
2022-12-31T02:26:13.698Z,985.77
2022-12-31T02:27:13.619Z,985.82
2022-12-31T02:28:13.540Z,985.79
2022-12-31T02:29:13.459Z,985.81
2022-12-31T02:30:13.385Z,985.72
2022-12-31T02:31:13.361Z,985.80
2022-12-31T02:32:13.236Z,985.82
2022-12-31T02:33:13.183Z,985.66
2022-12-31T02:34:13.064Z,985.74
2022-12-31T02:35:12.991Z,985.73
2022-12-31T02:36:12.919Z,985.78
2022-12-31T02:37:12.828Z,985.76
2022-12-31T02:38:12.756Z,985.78
2022-12-31T02:39:12.697Z,985.84
2022-12-31T02:40:12.592Z,985.82
2022-12-31T02:41:12.709Z,985.82
2022-12-31T02:42:12.428Z,985.89
2022-12-31T02:43:12.347Z,985.77
2022-12-31T02:44:12.275Z,985.81
2022-12-31T02:45:12.190Z,985.79
2022-12-31T02:46:12.155Z,985.70
2022-12-31T02:47:12.032Z,985.84
2022-12-31T02:48:11.953Z,985.83
2022-12-31T02:49:11.894Z,985.71
2022-12-31T02:50:11.799Z,985.57
2022-12-31T02:51:11.716Z,985.64
2022-12-31T02:52:11.637Z,985.65
2022-12-31T02:53:11.613Z,985.73
2022-12-31T02:54:11.629Z,985.74
2022-12-31T02:55:11.557Z,985.66
2022-12-31T02:56:11.320Z,985.69
2022-12-31T02:57:11.244Z,985.61
2022-12-31T02:58:11.167Z,985.68
2022-12-31T02:59:11.383Z,985.66
2022-12-31T03:00:11.005Z,985.66
2022-12-31T03:01:11.006Z,985.73
2022-12-31T03:02:10.972Z,985.65
2022-12-31T03:03:10.766Z,985.65
2022-12-31T03:04:10.686Z,985.63
2022-12-31T03:05:10.630Z,985.72
2022-12-31T03:06:10.530Z,985.65
2022-12-31T03:07:10.704Z,985.60
2022-12-31T03:08:10.371Z,985.63
2022-12-31T03:09:10.292Z,985.60
2022-12-31T03:10:10.211Z,985.67
2022-12-31T03:11:10.132Z,985.67
2022-12-31T03:12:10.064Z,985.61
2022-12-31T03:13:09.984Z,985.66
2022-12-31T03:14:09.895Z,985.52
2022-12-31T03:15:09.813Z,985.48
2022-12-31T03:16:09.768Z,985.54
2022-12-31T03:17:09.665Z,985.65
2022-12-31T03:18:09.576Z,985.65
2022-12-31T03:19:09.748Z,985.70
2022-12-31T03:20:09.427Z,985.80
2022-12-31T03:21:09.507Z,985.55
2022-12-31T03:22:09.262Z,985.80
2022-12-31T03:23:09.182Z,985.83
2022-12-31T03:24:09.101Z,985.69
2022-12-31T03:25:09.027Z,985.67
2022-12-31T03:26:08.945Z,985.64
2022-12-31T03:27:08.881Z,985.68
2022-12-31T03:28:08.786Z,985.64
2022-12-31T03:29:08.812Z,985.76
2022-12-31T03:30:08.639Z,985.62
2022-12-31T03:31:08.600Z,985.72
2022-12-31T03:32:08.470Z,985.76
2022-12-31T03:33:08.399Z,985.63
2022-12-31T03:34:08.418Z,985.58
2022-12-31T03:35:08.232Z,985.72
2022-12-31T03:36:08.157Z,985.53
2022-12-31T03:37:08.090Z,985.53
2022-12-31T03:38:07.996Z,985.57
2022-12-31T03:39:07.928Z,985.72
2022-12-31T03:40:07.848Z,985.76
2022-12-31T03:41:07.756Z,985.64
2022-12-31T03:42:07.680Z,985.64
2022-12-31T03:43:07.615Z,985.64
2022-12-31T03:44:07.524Z,985.72
2022-12-31T03:45:07.444Z,985.59
2022-12-31T03:46:07.422Z,985.63
2022-12-31T03:47:07.282Z,985.71
2022-12-31T03:48:07.358Z,985.84
2022-12-31T03:49:07.124Z,985.83
2022-12-31T03:50:07.046Z,985.72
2022-12-31T03:51:06.969Z,985.81
2022-12-31T03:52:06.898Z,985.65
2022-12-31T03:53:06.849Z,985.64
2022-12-31T03:54:06.731Z,985.60
2022-12-31T03:55:06.647Z,985.81
2022-12-31T03:56:06.577Z,985.68
2022-12-31T03:57:06.494Z,985.66
2022-12-31T03:58:06.414Z,985.66
2022-12-31T03:59:06.335Z,985.57
2022-12-31T04:00:06.297Z,985.81
2022-12-31T04:01:06.294Z,985.54
2022-12-31T04:02:06.209Z,985.60
2022-12-31T04:03:06.124Z,985.50
2022-12-31T04:04:05.940Z,985.61
2022-12-31T04:05:05.863Z,985.73
2022-12-31T04:06:05.782Z,985.69
2022-12-31T04:07:05.701Z,985.57
2022-12-31T04:08:05.622Z,985.52
2022-12-31T04:09:05.571Z,985.69
2022-12-31T04:10:05.464Z,985.69
2022-12-31T04:11:05.384Z,985.80
2022-12-31T04:12:05.306Z,985.80
2022-12-31T04:13:05.236Z,985.60
2022-12-31T04:14:05.150Z,985.86
2022-12-31T04:15:05.068Z,985.79
2022-12-31T04:16:05.012Z,985.74
2022-12-31T04:17:04.911Z,985.87
2022-12-31T04:18:04.849Z,985.93
2022-12-31T04:19:04.764Z,985.80
2022-12-31T04:20:04.675Z,985.89
2022-12-31T04:21:04.594Z,985.97
2022-12-31T04:22:04.526Z,986.03
2022-12-31T04:23:04.448Z,985.75
2022-12-31T04:24:04.621Z,986.01
2022-12-31T04:25:04.299Z,985.99
2022-12-31T04:26:04.201Z,985.93
2022-12-31T04:27:07.885Z,986.10
2022-12-31T04:28:04.041Z,985.91
2022-12-31T04:29:03.962Z,985.88
2022-12-31T04:30:03.883Z,985.98
2022-12-31T04:31:03.816Z,985.97
2022-12-31T04:32:03.820Z,985.84
2022-12-31T04:33:03.646Z,985.57
2022-12-31T04:34:03.571Z,985.91
2022-12-31T04:35:03.841Z,985.94
2022-12-31T04:36:03.412Z,985.87
2022-12-31T04:37:03.333Z,985.82
2022-12-31T04:38:03.254Z,986.15
2022-12-31T04:39:03.174Z,986.13
2022-12-31T04:40:06.286Z,985.90
2022-12-31T04:41:03.040Z,986.07
2022-12-31T04:42:02.937Z,986.12
2022-12-31T04:43:02.864Z,986.32
2022-12-31T04:44:02.779Z,986.25
2022-12-31T04:45:02.710Z,986.24
2022-12-31T04:46:02.728Z,986.25
2022-12-31T04:47:02.543Z,986.29
2022-12-31T04:48:02.463Z,986.23
2022-12-31T04:49:02.387Z,986.40
2022-12-31T04:50:02.305Z,986.36
2022-12-31T04:51:02.247Z,986.31
2022-12-31T04:52:02.150Z,986.17
2022-12-31T04:53:02.069Z,986.32
2022-12-31T04:54:02.008Z,986.27
2022-12-31T04:55:01.911Z,986.30
2022-12-31T04:56:01.840Z,986.25
2022-12-31T04:57:01.777Z,986.30
2022-12-31T04:58:01.679Z,986.19
2022-12-31T04:59:01.617Z,986.25
2022-12-31T05:00:01.533Z,986.32
2022-12-31T05:01:01.548Z,986.20
2022-12-31T05:02:01.625Z,986.32
2022-12-31T05:03:01.335Z,986.22
2022-12-31T05:04:01.207Z,986.17
2022-12-31T05:05:01.131Z,986.40
2022-12-31T05:06:01.048Z,986.22
2022-12-31T05:07:00.970Z,986.36
2022-12-31T05:08:00.891Z,986.35
2022-12-31T05:09:00.813Z,986.22
2022-12-31T05:10:00.733Z,986.36
2022-12-31T05:11:00.654Z,986.15
2022-12-31T05:12:00.579Z,986.36
2022-12-31T05:13:00.523Z,986.21
2022-12-31T05:14:00.437Z,986.21
2022-12-31T05:15:00.542Z,986.27
2022-12-31T05:16:00.276Z,986.40
2022-12-31T05:17:00.326Z,986.26
2022-12-31T05:18:00.154Z,986.40
2022-12-31T05:19:00.030Z,986.32
2022-12-31T05:19:59.948Z,986.53
2022-12-31T05:20:59.875Z,986.53
2022-12-31T05:21:59.792Z,986.54
2022-12-31T05:22:59.712Z,986.62
2022-12-31T05:23:59.641Z,986.54
2022-12-31T05:24:59.582Z,986.61
2022-12-31T05:25:59.511Z,986.69
2022-12-31T05:26:59.398Z,986.58
2022-12-31T05:27:59.321Z,986.47
2022-12-31T05:28:59.262Z,986.61
2022-12-31T05:29:59.162Z,986.60
2022-12-31T05:30:59.121Z,986.64
2022-12-31T05:31:59.008Z,986.71
2022-12-31T05:32:58.931Z,986.67
2022-12-31T05:33:58.850Z,986.68
2022-12-31T05:34:58.771Z,986.82
2022-12-31T05:35:58.724Z,986.78
2022-12-31T05:36:58.613Z,986.98
2022-12-31T05:37:58.536Z,986.65
2022-12-31T05:38:58.458Z,986.73
2022-12-31T05:39:58.387Z,986.78
2022-12-31T05:40:58.301Z,986.86
2022-12-31T05:41:58.232Z,986.70
2022-12-31T05:42:58.144Z,986.77
2022-12-31T05:43:58.068Z,986.73
2022-12-31T05:44:58.009Z,986.77
2022-12-31T05:45:57.963Z,986.69
2022-12-31T05:46:57.831Z,986.77
2022-12-31T05:47:57.773Z,986.72
2022-12-31T05:48:57.676Z,986.69
2022-12-31T05:49:57.595Z,986.79
2022-12-31T05:50:57.581Z,987.03
2022-12-31T05:51:57.441Z,986.82
2022-12-31T05:52:57.360Z,986.84
2022-12-31T05:53:57.283Z,986.96
2022-12-31T05:54:57.207Z,986.91
2022-12-31T05:55:57.134Z,987.00
2022-12-31T05:56:57.050Z,987.05
2022-12-31T05:57:56.974Z,987.02
2022-12-31T05:58:56.892Z,987.06
2022-12-31T05:59:56.813Z,987.00
2022-12-31T06:00:56.784Z,986.98
2022-12-31T06:01:56.657Z,986.96
2022-12-31T06:02:56.734Z,987.04
2022-12-31T06:03:56.587Z,987.12
2022-12-31T06:04:56.427Z,987.02
2022-12-31T06:05:56.342Z,987.04
2022-12-31T06:06:56.306Z,986.99
2022-12-31T06:07:56.205Z,987.16
2022-12-31T06:08:56.125Z,987.01
2022-12-31T06:09:56.034Z,987.02
2022-12-31T06:10:56.077Z,987.19
2022-12-31T06:11:55.889Z,987.06
2022-12-31T06:12:55.800Z,987.07
2022-12-31T06:13:55.720Z,987.13
2022-12-31T06:14:55.641Z,987.14
2022-12-31T06:15:55.640Z,987.22
2022-12-31T06:16:55.508Z,987.15
2022-12-31T06:17:55.419Z,987.05
2022-12-31T06:18:55.329Z,987.04
2022-12-31T06:19:55.259Z,987.16
2022-12-31T06:20:55.327Z,987.03
2022-12-31T06:21:55.104Z,987.04
2022-12-31T06:22:55.021Z,987.04
2022-12-31T06:23:55.142Z,987.04
2022-12-31T06:24:54.864Z,986.96
2022-12-31T06:25:54.782Z,987.05
2022-12-31T06:26:54.705Z,987.00
2022-12-31T06:27:54.696Z,987.15
2022-12-31T06:28:54.562Z,987.09
2022-12-31T06:29:54.474Z,986.97
2022-12-31T06:30:54.425Z,987.05
2022-12-31T06:31:54.313Z,987.02
2022-12-31T06:32:54.257Z,987.04
2022-12-31T06:33:54.156Z,987.04
2022-12-31T06:34:54.087Z,986.97
2022-12-31T06:37:11.512Z,987.14
2022-12-31T06:38:11.435Z,987.26
2022-12-31T06:39:11.451Z,987.12
2022-12-31T06:40:11.274Z,987.16
2022-12-31T06:41:11.194Z,987.28
2022-12-31T06:42:11.128Z,987.19
2022-12-31T06:43:11.040Z,987.10
2022-12-31T06:44:10.965Z,987.25
2022-12-31T06:45:10.881Z,987.20
2022-12-31T06:46:10.919Z,987.06
2022-12-31T06:47:10.730Z,987.15
2022-12-31T06:48:10.675Z,987.13
2022-12-31T06:49:10.572Z,987.14
2022-12-31T06:50:10.499Z,987.12
2022-12-31T06:51:16.580Z,987.22
2022-12-31T06:52:10.339Z,987.18
2022-12-31T06:53:10.307Z,987.29
2022-12-31T06:54:10.188Z,987.20
2022-12-31T06:55:10.118Z,987.36
2022-12-31T06:56:10.224Z,987.35
2022-12-31T06:57:09.958Z,987.34
2022-12-31T06:58:09.868Z,987.40
2022-12-31T06:59:09.790Z,987.33
2022-12-31T07:00:09.714Z,987.46
2022-12-31T07:01:09.708Z,987.32
2022-12-31T07:02:09.615Z,987.56
2022-12-31T07:03:09.558Z,987.35
2022-12-31T07:04:09.432Z,987.44
2022-12-31T07:05:09.322Z,987.49
2022-12-31T07:06:09.244Z,987.49
2022-12-31T07:07:09.174Z,987.47
2022-12-31T07:08:09.086Z,987.61
2022-12-31T07:09:09.016Z,987.64
2022-12-31T07:10:08.934Z,987.73
2022-12-31T07:11:08.853Z,987.64
2022-12-31T07:12:08.772Z,987.67
2022-12-31T07:13:08.696Z,987.60
2022-12-31T07:14:08.627Z,987.60
2022-12-31T07:15:08.545Z,987.62
2022-12-31T07:16:08.548Z,987.61
2022-12-31T07:17:08.385Z,987.55
2022-12-31T07:18:08.308Z,987.76
2022-12-31T07:19:08.227Z,987.58
2022-12-31T07:20:08.182Z,987.65
2022-12-31T07:21:08.085Z,987.47
2022-12-31T07:22:07.996Z,987.46
2022-12-31T07:23:07.919Z,987.50
2022-12-31T07:24:07.845Z,987.59
2022-12-31T07:25:07.760Z,987.50
2022-12-31T07:26:07.691Z,987.57
2022-12-31T07:27:07.605Z,987.49
2022-12-31T07:28:07.527Z,987.50
2022-12-31T07:29:07.449Z,987.42
2022-12-31T07:30:07.371Z,987.49
2022-12-31T07:31:07.551Z,987.52
2022-12-31T07:32:07.223Z,987.64
2022-12-31T07:33:07.190Z,987.53
2022-12-31T07:34:07.065Z,987.46
2022-12-31T07:35:06.986Z,987.35
2022-12-31T07:36:06.927Z,987.35
2022-12-31T07:37:06.825Z,987.32
2022-12-31T07:38:06.744Z,987.31
2022-12-31T07:39:06.679Z,987.41
2022-12-31T07:40:06.599Z,987.40
2022-12-31T07:41:09.815Z,987.40
2022-12-31T07:42:06.434Z,987.43
2022-12-31T07:43:06.456Z,987.38
2022-12-31T07:44:06.291Z,987.36
2022-12-31T07:45:06.203Z,987.50
2022-12-31T07:46:06.179Z,987.41
2022-12-31T07:47:06.052Z,987.44
2022-12-31T07:48:05.964Z,987.51
2022-12-31T07:49:05.892Z,987.40
2022-12-31T07:50:05.807Z,987.38
2022-12-31T07:51:05.731Z,987.78
2022-12-31T07:52:05.685Z,987.53
2022-12-31T07:53:05.591Z,987.44
2022-12-31T07:54:10.268Z,987.59
2022-12-31T07:55:05.574Z,987.51
2022-12-31T07:56:05.343Z,987.53
2022-12-31T07:57:05.273Z,987.65
2022-12-31T07:58:05.188Z,987.56
2022-12-31T07:59:05.113Z,987.65
2022-12-31T08:00:05.028Z,987.59
2022-12-31T08:01:05.047Z,987.71
2022-12-31T08:02:04.977Z,987.57
2022-12-31T08:03:04.801Z,987.68
2022-12-31T08:04:04.718Z,987.78
2022-12-31T08:05:04.637Z,987.74
2022-12-31T08:06:04.561Z,987.77
2022-12-31T08:07:04.488Z,987.68
2022-12-31T08:08:04.431Z,987.66
2022-12-31T08:09:04.334Z,987.79
2022-12-31T08:10:04.263Z,987.71
2022-12-31T08:11:04.197Z,987.76
2022-12-31T08:12:04.092Z,987.90
2022-12-31T08:13:04.019Z,987.88
2022-12-31T08:14:03.946Z,987.88
2022-12-31T08:15:03.860Z,988.10
2022-12-31T08:16:03.916Z,988.08
2022-12-31T08:17:03.720Z,987.95
2022-12-31T08:18:03.626Z,988.04
2022-12-31T08:19:03.559Z,988.01
2022-12-31T08:20:03.467Z,987.88
2022-12-31T08:21:03.399Z,988.04
2022-12-31T08:22:03.319Z,988.04
2022-12-31T08:23:03.244Z,988.03
2022-12-31T08:24:03.182Z,988.00
2022-12-31T08:25:03.097Z,988.06
2022-12-31T08:26:03.004Z,988.01
2022-12-31T08:27:02.931Z,988.13
2022-12-31T08:28:02.861Z,988.29
2022-12-31T08:29:02.803Z,988.26
2022-12-31T08:30:02.691Z,988.10
2022-12-31T08:31:02.624Z,988.33
2022-12-31T08:32:02.593Z,988.24
2022-12-31T08:33:02.458Z,988.27
2022-12-31T08:34:06.005Z,988.25
2022-12-31T08:35:02.315Z,988.28
2022-12-31T08:36:02.227Z,988.42
2022-12-31T08:37:02.158Z,988.41
2022-12-31T08:38:02.099Z,988.45
2022-12-31T08:39:01.998Z,988.45
2022-12-31T08:40:01.939Z,988.50
2022-12-31T08:41:01.840Z,988.42
2022-12-31T08:42:01.760Z,988.46
2022-12-31T08:43:01.702Z,988.46
2022-12-31T08:44:01.614Z,988.53
2022-12-31T08:45:01.528Z,988.53
2022-12-31T08:46:01.615Z,988.52
2022-12-31T08:47:01.374Z,988.41
2022-12-31T08:48:01.305Z,988.57
2022-12-31T08:49:01.219Z,988.56
2022-12-31T08:50:01.143Z,988.64
2022-12-31T08:51:01.062Z,988.52
2022-12-31T08:52:01.005Z,988.45
2022-12-31T08:53:00.923Z,988.62
2022-12-31T08:54:00.837Z,988.53
2022-12-31T08:55:00.755Z,988.45
2022-12-31T08:56:00.729Z,988.47
2022-12-31T08:57:00.600Z,988.53
2022-12-31T08:58:00.524Z,988.48
2022-12-31T08:59:00.447Z,988.45
2022-12-31T09:00:00.367Z,988.41
2022-12-31T09:01:00.437Z,988.49
2022-12-31T09:02:00.500Z,988.49
2022-12-31T09:03:00.162Z,988.50
2022-12-31T09:04:00.161Z,988.44
2022-12-31T09:04:59.983Z,988.45
2022-12-31T09:06:00.153Z,988.53
2022-12-31T09:06:59.829Z,988.40
2022-12-31T09:07:59.754Z,988.47
2022-12-31T09:08:59.777Z,988.48
2022-12-31T09:09:59.593Z,988.38
2022-12-31T09:10:59.518Z,988.31
2022-12-31T09:11:59.462Z,988.39
2022-12-31T09:12:59.368Z,988.38
2022-12-31T09:13:59.288Z,988.34
2022-12-31T09:14:59.220Z,988.36
2022-12-31T09:15:59.130Z,988.35
2022-12-31T09:16:59.099Z,988.40
2022-12-31T09:17:58.978Z,988.56
2022-12-31T09:18:58.907Z,988.33
2022-12-31T09:19:58.822Z,988.27
2022-12-31T09:20:58.746Z,988.38
2022-12-31T09:21:58.677Z,988.43
2022-12-31T09:22:58.589Z,988.47
2022-12-31T09:23:58.696Z,988.39
2022-12-31T09:24:58.436Z,988.36
2022-12-31T09:25:58.359Z,988.41
2022-12-31T09:26:58.287Z,988.58
2022-12-31T09:27:58.243Z,988.46
2022-12-31T09:28:58.128Z,988.45
2022-12-31T09:29:58.055Z,988.46
2022-12-31T09:30:57.979Z,988.53
2022-12-31T09:31:57.961Z,988.58
2022-12-31T09:33:01.023Z,988.48
2022-12-31T09:33:57.754Z,988.62
2022-12-31T09:34:57.672Z,988.57
2022-12-31T09:35:57.589Z,988.66
2022-12-31T09:36:57.531Z,988.58
2022-12-31T09:37:57.442Z,988.64
2022-12-31T09:38:57.358Z,988.56
2022-12-31T09:39:57.280Z,988.82
2022-12-31T09:40:57.214Z,988.67
2022-12-31T09:41:57.136Z,988.84
2022-12-31T09:42:57.052Z,988.75
2022-12-31T09:44:00.866Z,988.70
2022-12-31T09:44:56.898Z,988.76
2022-12-31T09:45:56.903Z,988.70
2022-12-31T09:46:56.770Z,988.89
2022-12-31T09:47:56.678Z,988.89
2022-12-31T09:48:56.608Z,988.95
2022-12-31T09:49:56.523Z,988.84
2022-12-31T09:50:56.449Z,988.81
2022-12-31T09:51:56.363Z,988.82
2022-12-31T09:52:56.284Z,988.87
2022-12-31T09:53:56.209Z,988.82
2022-12-31T09:54:56.132Z,988.83
2022-12-31T09:55:56.059Z,988.79
2022-12-31T09:56:59.169Z,988.92
2022-12-31T09:57:55.899Z,988.94
2022-12-31T09:58:55.836Z,988.84
2022-12-31T09:59:55.890Z,988.83
2022-12-31T10:00:55.746Z,988.92
2022-12-31T10:01:55.682Z,988.94
2022-12-31T10:02:55.565Z,988.93
2022-12-31T10:03:55.445Z,988.75
2022-12-31T10:04:55.368Z,989.01
2022-12-31T10:05:55.285Z,989.04
2022-12-31T10:06:55.216Z,988.97
2022-12-31T10:07:55.134Z,988.92
2022-12-31T10:08:55.069Z,988.89
2022-12-31T10:09:55.131Z,988.85
2022-12-31T10:10:54.917Z,988.81
2022-12-31T10:11:54.829Z,988.79
2022-12-31T10:12:54.903Z,988.90
2022-12-31T10:13:54.673Z,988.82
2022-12-31T10:14:54.601Z,988.70
2022-12-31T10:15:54.552Z,988.87
2022-12-31T10:16:54.475Z,988.76
2022-12-31T10:17:54.369Z,988.70
2022-12-31T10:18:54.292Z,988.85
2022-12-31T10:19:54.213Z,988.71
2022-12-31T10:20:54.142Z,988.76
2022-12-31T10:21:54.064Z,989.00
2022-12-31T10:22:53.984Z,988.59
2022-12-31T10:23:53.917Z,988.75
2022-12-31T10:24:53.841Z,988.83
2022-12-31T10:25:53.758Z,988.79
2022-12-31T10:26:53.726Z,988.92
2022-12-31T10:27:53.610Z,988.90
2022-12-31T10:28:53.526Z,988.88
2022-12-31T10:29:53.505Z,988.76
2022-12-31T10:30:53.406Z,988.85
2022-12-31T10:31:53.348Z,988.87
2022-12-31T10:32:53.226Z,988.91
2022-12-31T10:33:53.147Z,988.84
2022-12-31T10:34:53.077Z,988.86
2022-12-31T10:35:52.996Z,988.78
2022-12-31T10:36:52.939Z,988.84
2022-12-31T10:37:52.851Z,988.97
2022-12-31T10:38:52.771Z,988.80
2022-12-31T10:39:52.693Z,988.88
2022-12-31T10:40:52.620Z,988.74
2022-12-31T10:41:52.745Z,988.73
2022-12-31T10:42:52.486Z,988.65
2022-12-31T10:43:52.409Z,988.78
2022-12-31T10:44:52.324Z,988.69
2022-12-31T10:45:52.257Z,988.67
2022-12-31T10:46:52.165Z,988.72
2022-12-31T10:47:52.122Z,988.72
2022-12-31T10:48:52.042Z,988.62
2022-12-31T10:49:51.938Z,988.67
2022-12-31T10:52:04.367Z,988.74
2022-12-31T10:53:04.292Z,988.79
2022-12-31T10:54:04.216Z,988.73
2022-12-31T10:55:04.142Z,988.73
2022-12-31T10:56:04.073Z,988.75
2022-12-31T10:57:03.997Z,988.72
2022-12-31T10:58:04.663Z,988.73
2022-12-31T10:59:03.846Z,988.74
2022-12-31T11:00:03.820Z,988.97
2022-12-31T11:01:03.844Z,988.73
2022-12-31T11:02:03.829Z,988.79
2022-12-31T11:03:03.626Z,988.73
2022-12-31T11:04:03.474Z,988.80
2022-12-31T11:05:03.399Z,988.71
2022-12-31T11:06:03.325Z,988.74
2022-12-31T11:07:03.245Z,988.73
2022-12-31T11:08:03.177Z,988.80
2022-12-31T11:09:03.100Z,988.61
2022-12-31T11:10:03.186Z,988.76
2022-12-31T11:11:02.956Z,988.71
2022-12-31T11:12:02.886Z,988.63
2022-12-31T11:13:02.803Z,988.65
2022-12-31T11:14:02.730Z,988.55
2022-12-31T11:15:02.655Z,988.71
2022-12-31T11:16:02.613Z,988.65
2022-12-31T11:17:02.503Z,988.71
2022-12-31T11:18:02.429Z,988.69
2022-12-31T11:19:02.375Z,988.75
2022-12-31T11:20:02.279Z,988.68
2022-12-31T11:21:02.204Z,988.73
2022-12-31T11:22:02.129Z,988.64
2022-12-31T11:23:02.054Z,988.64
2022-12-31T11:24:02.130Z,988.73
2022-12-31T11:25:02.103Z,988.82
2022-12-31T11:26:01.829Z,988.62
2022-12-31T11:27:01.752Z,988.78
2022-12-31T11:28:01.695Z,988.64
2022-12-31T11:29:01.602Z,988.66
2022-12-31T11:30:01.530Z,988.72
2022-12-31T11:31:01.698Z,988.78
2022-12-31T11:32:01.380Z,988.75
2022-12-31T11:33:01.306Z,988.87
2022-12-31T11:34:01.236Z,988.88
2022-12-31T11:35:01.170Z,988.89
2022-12-31T11:36:01.085Z,988.85
2022-12-31T11:37:01.006Z,988.68
2022-12-31T11:38:00.933Z,988.87
2022-12-31T11:39:00.863Z,988.87
2022-12-31T11:40:00.785Z,988.86
2022-12-31T11:41:00.714Z,988.87
2022-12-31T11:42:00.632Z,988.79
2022-12-31T11:43:00.560Z,988.82
2022-12-31T11:44:00.476Z,988.85
2022-12-31T11:45:00.406Z,988.79
2022-12-31T11:46:00.381Z,988.88
2022-12-31T11:47:00.267Z,988.64
2022-12-31T11:49:00.100Z,988.63
2022-12-31T11:50:00.027Z,988.65
2022-12-31T11:50:59.995Z,988.65
2022-12-31T11:51:59.877Z,988.57
2022-12-31T11:52:59.816Z,988.58
2022-12-31T11:53:59.749Z,988.53
2022-12-31T11:54:59.651Z,988.54
2022-12-31T11:55:59.578Z,988.51
2022-12-31T11:56:59.497Z,988.59
2022-12-31T11:57:59.425Z,988.60
2022-12-31T11:59:00.878Z,988.53
2022-12-31T11:59:59.283Z,988.58
2022-12-31T12:00:59.263Z,988.67
2022-12-31T12:01:59.120Z,988.60
2022-12-31T12:02:59.087Z,988.60
2022-12-31T12:03:58.996Z,988.61
2022-12-31T12:04:58.897Z,988.55
2022-12-31T12:05:58.822Z,988.57
2022-12-31T12:06:58.766Z,988.55
2022-12-31T12:07:58.670Z,988.59
2022-12-31T12:08:58.601Z,988.57
2022-12-31T12:09:58.528Z,988.52
2022-12-31T12:10:58.447Z,988.56
2022-12-31T12:11:58.370Z,988.56
2022-12-31T12:12:58.308Z,988.47
2022-12-31T12:13:58.222Z,988.57
2022-12-31T12:14:58.147Z,988.51
2022-12-31T12:15:58.120Z,988.47
2022-12-31T12:17:04.312Z,988.49
2022-12-31T12:17:57.915Z,988.45
2022-12-31T12:18:57.840Z,988.52
2022-12-31T12:19:57.768Z,988.47
2022-12-31T12:20:57.940Z,988.51
2022-12-31T12:21:57.616Z,988.46
2022-12-31T12:22:57.565Z,988.49
2022-12-31T12:23:57.488Z,988.48
2022-12-31T12:24:57.413Z,988.44
2022-12-31T12:25:57.353Z,988.52
2022-12-31T12:26:57.240Z,988.60
2022-12-31T12:27:57.174Z,988.43
2022-12-31T12:28:57.091Z,988.45
2022-12-31T12:29:57.040Z,988.34
2022-12-31T12:30:57.076Z,988.44